AirNav   Air Wisconsin pilot careers
 
 1019 users online  

5HO Hope Airport
Hope, Alaska, USA

GOING TO HOPE?


FAA INFORMATION EFFECTIVE 21 JUNE 2018

Location

FAA Identifier: 5HO
Lat/Long: 60-54-26.1450N / 149-37-22.1250W
60-54.435750N / 149-37.368750W
60.9072625 / -149.6228125
(estimated)
Elevation: 200 ft. / 61 m (estimated)
Variation: 25E (1985)
From city: 1 mile SE of HOPE, AK
Time zone: UTC -8 (UTC -9 during Standard Time)
Zip code: 99605

Airport Operations

Airport use: Open to the public
Activation date: 11/1950
Control tower: no
ARTCC: ANCHORAGE CENTER
FSS: KENAI FLIGHT SERVICE STATION [907-283-8469]
NOTAMs facility: ENA (NOTAM-D service available)
Attendance: UNATNDD
Wind indicator: yes, WINDSOCKS LOCATED AT BOTH ENDS OF RY 16/34.
Segmented circle: yes

Airport Communications

CTAF: 122.9
WX ASOS at LHD (19 nm NW): PHONE 907-245-1618
WX ASOS at ANC (19 nm NW): 118.4 (907-271-5278)
WX ASOS at MRI (19 nm N): PHONE 907-271-5277

Nearby radio navigation aids

VOR radial/distance  VOR name  Freq  Var
TEDr130/18.5ANCHORAGE VOR/DME113.1518E

 
NDB name  Hdg/Dist  Freq  Var  ID
CAMPBELL LAKE126/20.133816ECMQ -.-. -- --.-

Airport Services

Airframe service: NONE
Powerplant service: NONE
Bottled oxygen: NONE
Bulk oxygen: NONE

Runway Information

Runway 16/34

Dimensions: 2060 x 60 ft. / 628 x 18 m
Surface: gravel, in good condition
Runway edge markings: NSTD MKGS RYS 16 & 34; RY THLDS MKD WITH PLASTIC MARKERS.
RUNWAY 16  RUNWAY 34
Latitude: 60-54.603500N60-54.268000N
Longitude: 149-37.326333W149-37.411167W
Elevation: 175.0 ft.175.0 ft.
Gradient: 1.5%1.5%
Traffic pattern: leftleft
Markings: NSTDNSTD
Obstructions: 56 ft. trees, 110 ft. left and right of centerline51 ft. trees, 5 ft. from runway

Airport Ownership and Management from official FAA records

Ownership: Publicly-owned
Owner: ALASKA DOT&PF CENTRAL REGION
P.O. BOX 196900
ANCHORAGE, AK 99519-6900
Phone 907-338-1466
Manager: DREW MOTSINGER
STATE OF AK - DOTPF, 35200 HOPE HWY
HOPE, AK 99605
Phone 907-269-5672
FOREMAN FROM SILVERTIP STATION.

Airport Operational Statistics

Aircraft based on the field: 8
Single engine airplanes: 8
    
Aircraft operations: avg 40/month *
58% local general aviation
31% transient general aviation
10% air taxi
* for 12-month period ending 31 December 2013

Additional Remarks

BE ALERT RWY CONDITION NOT MONITORED. RECOMMEND VISUAL INSPECTION PRIOR TO LANDING.
SAFETY AREA NORTH END CLEARED 470 FT, SAFETY AREA SOUTH END CLEARED 580 FT.

Instrument Procedures

There are no published instrument procedures at 5HO.

Some nearby airports with instrument procedures:

PANC - Ted Stevens Anchorage International Airport (19 nm NW)
PAMR - Merrill Field Airport (19 nm N)
PAED - Elmendorf Air Force Base (21 nm N)
PAFR - Bryant Army Airfield Heliport (22 nm N)
PAGQ - Big Lake Airport (38 nm N)
 
Loc | Ops | Rwys | IFR | FBO | Links
Com | Nav | Svcs | Stats | Notes

Crowley
 
Area around 5HO (Hope Airport)
 
Road maps at: MapQuest Bing Google
 
Aerial photo
WARNING: Photo may not be current or correct
Aerial photo of 5HO (Hope Airport)
Photo by Jonathan Tack
Photo taken 07-Aug-2006

Do you have a better or more recent aerial photo of Hope Airport that you would like to share? If so, please send us your photo.

 
Sectional chart

 
Airport distance calculator
Flying to Hope Airport? Find the distance to fly.

From to 5HO

Sunrise and sunset
Times for 24-Jun-2018
 Local
(UTC-8)
 Zulu
(UTC)
Morning civil twilight++
Sunrise04:2512:25
Sunset23:3707:37
Evening civil twilight++

Current date and time
Zulu (UTC)  25-Jun-2018 00:52:55
Local (UTC-8)  24-Jun-2018 16:52:55
 
METAR
PANC 
19nm NW 
242353Z 32006KT 10SM FEW045 BKN070 BKN160 14/08 A2993 RMK AO2 SLP137 T01390078 10150 20117 58006
PALH 
19nm NW 
242353Z 26005KT 10SM FEW031 BKN060 OVC075 16/08 A2994 RMK AO2 SLP139 T01560078 10156 20111 58006
PAMR 
20nm N 
242353Z 31007KT 10SM FEW033 OVC070 16/09 A2993 RMK AO2 SLP136 T01560089 10167 20111 58006
PAED 
21nm N 
242356Z AUTO 23008KT 10SM FEW044 OVC070 14/08 A2993 RMK AO2 SLP131 60000 T01420077 10145 20115 57006
PAFR 
22nm N 
250038Z AUTO 26006KT 9SM OVC038 14/06 A2990 RMK AO2 SLP131
PATO 
24nm E 
242353Z AUTO 11003KT 10SM OVC044 14/07 A2993 RMK AO2 SLP136 T01390067 10144 20100 58006 TSNO
PABV 
31nm N 
242356Z AUTO 26007KT 10SM SCT038 OVC065 14/07 A2994 RMK AO2 SLP147 T01390072 10144 20111 58007 $
TAF
PANC 
19nm NW 
242050Z 2421/2524 31006KT P6SM VCSH BKN045 FM250600 19006KT P6SM VCSH BKN035 FM252300 28006KT P6SM -SHRA BKN045
PAED 
21nm N 
241900Z 2419/2601 21006KT 9999 BKN040 600703 QNH2984INS TEMPO 2509/2514 BKN020 TX16/2423Z TN10/2511Z
NOTAMs
Click for the latest NOTAMs
NOTAMs are issued by the DoD/FAA and will open in a separate window not controlled by AirNav.

 

 
 

Would you like to see your business listed on this page?

 If your business provides an interesting product or service to pilots, flight crews, aircraft, or users of the Hope Airport, you should consider listing it here.  To start the listing process, click on the button below
 
Add a business
 

Other Pages about Hope Airport

Update a link
 
Copyright © AirNav, LLC. All rights reserved. Privacy Policy  Contact